sensor_id;sensor_type;location;lat;lon;timestamp;pressure;altitude;pressure_sealevel;temperature;humidity
4528;BME280;62320;51.520;6.818;2023-12-20T00:08:19;101055.69;;;8.14;100.00
4528;BME280;62320;51.520;6.818;2023-12-20T00:18:20;101052.97;;;8.05;100.00
4528;BME280;62320;51.520;6.818;2023-12-20T00:28:21;101075.22;;;8.00;100.00
4528;BME280;62320;51.520;6.818;2023-12-20T00:38:23;101069.91;;;7.89;100.00
4528;BME280;62320;51.520;6.818;2023-12-20T00:48:24;101085.34;;;7.89;100.00
4528;BME280;62320;51.520;6.818;2023-12-20T00:58:28;101084.41;;;7.84;100.00
4528;BME280;62320;51.520;6.818;2023-12-20T01:08:29;101094.59;;;7.76;100.00
4528;BME280;62320;51.520;6.818;2023-12-20T01:18:31;101097.09;;;7.72;100.00
4528;BME280;62320;51.520;6.818;2023-12-20T01:28:32;101096.97;;;7.66;100.00
4528;BME280;62320;51.520;6.818;2023-12-20T01:38:35;101101.16;;;7.59;100.00
4528;BME280;62320;51.520;6.818;2023-12-20T01:48:36;101093.19;;;7.44;100.00
4528;BME280;62320;51.520;6.818;2023-12-20T01:58:44;101100.63;;;7.29;100.00
4528;BME280;62320;51.520;6.818;2023-12-20T02:08:46;101095.25;;;7.17;100.00
4528;BME280;62320;51.520;6.818;2023-12-20T02:18:47;101105.28;;;7.05;100.00
4528;BME280;62320;51.520;6.818;2023-12-20T02:28:49;101097.38;;;6.94;100.00
4528;BME280;62320;51.520;6.818;2023-12-20T02:38:51;101107.50;;;6.87;100.00
4528;BME280;62320;51.520;6.818;2023-12-20T02:48:52;101107.31;;;6.79;100.00
4528;BME280;62320;51.520;6.818;2023-12-20T02:58:54;101118.34;;;6.72;100.00
4528;BME280;62320;51.520;6.818;2023-12-20T03:08:55;101105.31;;;6.65;100.00
4528;BME280;62320;51.520;6.818;2023-12-20T03:18:57;101095.84;;;6.62;100.00
4528;BME280;62320;51.520;6.818;2023-12-20T03:28:58;101094.06;;;6.60;100.00
4528;BME280;62320;51.520;6.818;2023-12-20T03:39:00;101098.25;;;6.55;100.00
4528;BME280;62320;51.520;6.818;2023-12-20T03:49:01;101083.50;;;6.46;100.00
4528;BME280;62320;51.520;6.818;2023-12-20T03:59:05;101078.19;;;6.38;100.00
4528;BME280;62320;51.520;6.818;2023-12-20T04:09:06;101073.78;;;6.31;100.00
4528;BME280;62320;51.520;6.818;2023-12-20T04:19:10;101088.31;;;6.31;100.00
4528;BME280;62320;51.520;6.818;2023-12-20T04:29:11;101071.94;;;6.26;100.00
4528;BME280;62320;51.520;6.818;2023-12-20T04:39:13;101096.84;;;6.30;100.00
4528;BME280;62320;51.520;6.818;2023-12-20T04:49:16;101100.28;;;6.30;100.00
4528;BME280;62320;51.520;6.818;2023-12-20T04:59:17;101088.22;;;6.26;100.00
4528;BME280;62320;51.520;6.818;2023-12-20T05:09:19;101083.88;;;6.24;100.00
4528;BME280;62320;51.520;6.818;2023-12-20T05:19:20;101091.66;;;6.27;100.00
4528;BME280;62320;51.520;6.818;2023-12-20T05:29:22;101083.97;;;6.28;100.00
4528;BME280;62320;51.520;6.818;2023-12-20T05:39:23;101067.78;;;6.31;100.00
4528;BME280;62320;51.520;6.818;2023-12-20T05:49:25;101067.81;;;6.34;100.00
4528;BME280;62320;51.520;6.818;2023-12-20T05:59:26;101084.19;;;6.37;100.00
4528;BME280;62320;51.520;6.818;2023-12-20T06:09:28;101062.03;;;6.42;100.00
4528;BME280;62320;51.520;6.818;2023-12-20T06:19:32;101079.22;;;6.45;100.00
4528;BME280;62320;51.520;6.818;2023-12-20T06:29:34;101086.06;;;6.46;100.00
4528;BME280;62320;51.520;6.818;2023-12-20T06:39:36;101075.88;;;6.49;100.00
4528;BME280;62320;51.520;6.818;2023-12-20T06:49:37;101080.25;;;6.55;100.00
4528;BME280;62320;51.520;6.818;2023-12-20T06:59:40;101082.03;;;6.57;100.00
4528;BME280;62320;51.520;6.818;2023-12-20T07:09:41;101065.81;;;6.60;100.00
4528;BME280;62320;51.520;6.818;2023-12-20T07:19:44;101075.28;;;6.61;100.00
4528;BME280;62320;51.520;6.818;2023-12-20T07:29:45;101068.47;;;6.63;100.00
4528;BME280;62320;51.520;6.818;2023-12-20T07:39:47;101067.69;;;6.68;100.00
4528;BME280;62320;51.520;6.818;2023-12-20T07:49:49;101081.34;;;6.66;100.00
4528;BME280;62320;51.520;6.818;2023-12-20T07:59:50;101073.78;;;6.72;100.00
4528;BME280;62320;51.520;6.818;2023-12-20T08:09:52;101069.53;;;6.72;100.00
4528;BME280;62320;51.520;6.818;2023-12-20T08:19:54;101085.03;;;6.77;100.00
4528;BME280;62320;51.520;6.818;2023-12-20T08:29:56;101067.88;;;6.77;100.00
4528;BME280;62320;51.520;6.818;2023-12-20T08:39:57;101091.06;;;6.79;100.00
4528;BME280;62320;51.520;6.818;2023-12-20T08:49:59;101085.97;;;6.82;100.00
4528;BME280;62320;51.520;6.818;2023-12-20T09:00:02;101080.06;;;6.86;100.00
4528;BME280;62320;51.520;6.818;2023-12-20T09:10:06;101066.38;;;6.87;100.00
4528;BME280;62320;51.520;6.818;2023-12-20T09:20:08;101059.59;;;6.90;100.00
4528;BME280;62320;51.520;6.818;2023-12-20T09:30:10;101055.38;;;6.94;100.00
4528;BME280;62320;51.520;6.818;2023-12-20T09:40:18;101055.38;;;6.95;100.00
4528;BME280;62320;51.520;6.818;2023-12-20T09:50:20;101063.19;;;6.98;100.00
4528;BME280;62320;51.520;6.818;2023-12-20T10:00:23;101062.44;;;7.04;100.00
4528;BME280;62320;51.520;6.818;2023-12-20T10:10:25;101065.09;;;7.08;100.00
4528;BME280;62320;51.520;6.818;2023-12-20T10:20:40;101057.41;;;7.11;100.00
4528;BME280;62320;51.520;6.818;2023-12-20T10:30:42;101046.41;;;7.18;100.00
4528;BME280;62320;51.520;6.818;2023-12-20T10:40:47;101020.81;;;7.25;100.00
4528;BME280;62320;51.520;6.818;2023-12-20T10:50:49;101031.13;;;7.26;100.00
4528;BME280;62320;51.520;6.818;2023-12-20T11:00:56;101039.81;;;7.34;100.00
4528;BME280;62320;51.520;6.818;2023-12-20T11:11:35;101027.09;;;7.40;100.00
4528;BME280;62320;51.520;6.818;2023-12-20T11:21:39;101018.50;;;7.41;100.00
4528;BME280;62320;51.520;6.818;2023-12-20T11:31:41;101011.72;;;7.45;100.00
4528;BME280;62320;51.520;6.818;2023-12-20T11:41:44;101008.34;;;7.47;100.00
4528;BME280;62320;51.520;6.818;2023-12-20T11:51:45;100992.91;;;7.49;100.00
4528;BME280;62320;51.520;6.818;2023-12-20T12:01:48;100976.59;;;7.47;100.00
4528;BME280;62320;51.520;6.818;2023-12-20T12:11:51;100983.53;;;7.51;100.00
4528;BME280;62320;51.520;6.818;2023-12-20T12:22:06;100974.19;;;7.57;100.00
4528;BME280;62320;51.520;6.818;2023-12-20T12:32:19;100972.50;;;7.59;100.00
4528;BME280;62320;51.520;6.818;2023-12-20T12:42:20;100951.09;;;7.63;100.00
4528;BME280;62320;51.520;6.818;2023-12-20T12:52:22;100940.91;;;7.69;100.00
4528;BME280;62320;51.520;6.818;2023-12-20T13:02:24;100935.78;;;7.71;100.00
4528;BME280;62320;51.520;6.818;2023-12-20T13:12:26;100916.13;;;7.74;100.00
4528;BME280;62320;51.520;6.818;2023-12-20T13:22:28;100898.09;;;7.74;100.00
4528;BME280;62320;51.520;6.818;2023-12-20T13:32:29;100889.47;;;7.72;100.00
4528;BME280;62320;51.520;6.818;2023-12-20T13:42:32;100877.47;;;7.71;100.00
4528;BME280;62320;51.520;6.818;2023-12-20T13:52:33;100870.56;;;7.70;100.00
4528;BME280;62320;51.520;6.818;2023-12-20T14:02:40;100876.59;;;7.69;100.00
4528;BME280;62320;51.520;6.818;2023-12-20T14:12:42;100856.88;;;7.71;100.00
4528;BME280;62320;51.520;6.818;2023-12-20T14:22:46;100858.56;;;7.69;100.00
4528;BME280;62320;51.520;6.818;2023-12-20T14:32:48;100877.41;;;7.68;100.00
4528;BME280;62320;51.520;6.818;2023-12-20T14:42:50;100868.00;;;7.70;100.00
4528;BME280;62320;51.520;6.818;2023-12-20T14:52:52;100872.25;;;7.68;100.00
4528;BME280;62320;51.520;6.818;2023-12-20T15:02:55;100868.84;;;7.69;100.00
4528;BME280;62320;51.520;6.818;2023-12-20T15:12:57;100863.72;;;7.71;100.00
4528;BME280;62320;51.520;6.818;2023-12-20T15:22:59;100844.88;;;7.72;100.00
4528;BME280;62320;51.520;6.818;2023-12-20T15:33:06;100847.47;;;7.73;100.00
4528;BME280;62320;51.520;6.818;2023-12-20T15:43:08;100868.09;;;7.78;100.00
4528;BME280;62320;51.520;6.818;2023-12-20T15:53:10;100845.75;;;7.75;100.00
4528;BME280;62320;51.520;6.818;2023-12-20T16:03:11;100832.91;;;7.77;100.00
4528;BME280;62320;51.520;6.818;2023-12-20T16:13:26;100811.47;;;7.78;100.00
4528;BME280;62320;51.520;6.818;2023-12-20T16:23:29;100810.66;;;7.80;100.00
4528;BME280;62320;51.520;6.818;2023-12-20T16:33:30;100807.28;;;7.86;100.00
4528;BME280;62320;51.520;6.818;2023-12-20T16:43:32;100802.13;;;7.86;100.00
4528;BME280;62320;51.520;6.818;2023-12-20T16:53:33;100803.00;;;7.85;100.00
4528;BME280;62320;51.520;6.818;2023-12-20T17:03:35;100785.78;;;7.82;100.00
4528;BME280;62320;51.520;6.818;2023-12-20T17:13:44;100764.31;;;7.79;100.00
4528;BME280;62320;51.520;6.818;2023-12-20T17:23:45;100736.00;;;7.82;100.00
4528;BME280;62320;51.520;6.818;2023-12-20T17:33:47;100738.59;;;7.80;100.00
4528;BME280;62320;51.520;6.818;2023-12-20T17:43:48;100706.78;;;7.77;100.00
4528;BME280;62320;51.520;6.818;2023-12-20T17:53:50;100711.97;;;7.80;100.00
4528;BME280;62320;51.520;6.818;2023-12-20T18:03:51;100677.63;;;7.78;100.00
4528;BME280;62320;51.520;6.818;2023-12-20T18:13:53;100678.50;;;7.80;100.00
4528;BME280;62320;51.520;6.818;2023-12-20T18:23:54;100671.66;;;7.82;100.00
4528;BME280;62320;51.520;6.818;2023-12-20T18:34:08;100664.81;;;7.84;100.00
4528;BME280;62320;51.520;6.818;2023-12-20T18:44:09;100629.66;;;7.86;100.00
4528;BME280;62320;51.520;6.818;2023-12-20T18:54:11;100620.25;;;7.88;100.00
4528;BME280;62320;51.520;6.818;2023-12-20T19:04:12;100611.72;;;7.92;100.00
4528;BME280;62320;51.520;6.818;2023-12-20T19:14:14;100596.25;;;7.93;100.00
4528;BME280;62320;51.520;6.818;2023-12-20T19:24:15;100570.53;;;7.95;100.00
4528;BME280;62320;51.520;6.818;2023-12-20T19:34:17;100569.75;;;8.04;100.00
4528;BME280;62320;51.520;6.818;2023-12-20T19:44:18;100578.31;;;8.04;100.00
4528;BME280;62320;51.520;6.818;2023-12-20T19:54:21;100551.75;;;8.11;100.00
4528;BME280;62320;51.520;6.818;2023-12-20T20:04:23;100542.31;;;8.13;100.00
4528;BME280;62320;51.520;6.818;2023-12-20T20:14:25;100521.72;;;8.13;100.00
4528;BME280;62320;51.520;6.818;2023-12-20T20:24:28;100505.47;;;8.17;100.00
4528;BME280;62320;51.520;6.818;2023-12-20T20:34:30;100489.97;;;8.16;100.00
4528;BME280;62320;51.520;6.818;2023-12-20T20:44:31;100487.41;;;8.16;100.00
4528;BME280;62320;51.520;6.818;2023-12-20T20:54:33;100487.44;;;8.20;100.00
4528;BME280;62320;51.520;6.818;2023-12-20T21:04:34;100499.47;;;8.21;100.00
4528;BME280;62320;51.520;6.818;2023-12-20T21:14:36;100453.13;;;8.24;100.00
4528;BME280;62320;51.520;6.818;2023-12-20T21:24:37;100460.91;;;8.29;100.00
4528;BME280;62320;51.520;6.818;2023-12-20T21:34:39;100439.44;;;8.34;100.00
4528;BME280;62320;51.520;6.818;2023-12-20T21:44:40;100424.84;;;8.30;100.00
4528;BME280;62320;51.520;6.818;2023-12-20T21:54:42;100415.41;;;8.37;100.00
4528;BME280;62320;51.520;6.818;2023-12-20T22:04:43;100389.66;;;8.35;100.00
4528;BME280;62320;51.520;6.818;2023-12-20T22:14:44;100383.63;;;8.36;100.00
4528;BME280;62320;51.520;6.818;2023-12-20T22:24:46;100375.06;;;8.37;100.00
4528;BME280;62320;51.520;6.818;2023-12-20T22:34:47;100393.97;;;8.45;100.00
4528;BME280;62320;51.520;6.818;2023-12-20T22:44:49;100374.22;;;8.44;100.00
4528;BME280;62320;51.520;6.818;2023-12-20T22:54:55;100368.22;;;8.45;100.00
4528;BME280;62320;51.520;6.818;2023-12-20T23:04:57;100356.19;;;8.52;100.00
4528;BME280;62320;51.520;6.818;2023-12-20T23:14:58;100351.94;;;8.54;100.00
4528;BME280;62320;51.520;6.818;2023-12-20T23:25:00;100325.28;;;8.55;100.00
4528;BME280;62320;51.520;6.818;2023-12-20T23:35:02;100328.72;;;8.61;100.00
4528;BME280;62320;51.520;6.818;2023-12-20T23:45:16;100275.47;;;8.62;100.00
4528;BME280;62320;51.520;6.818;2023-12-20T23:55:18;100253.13;;;8.64;100.00
